sensor_id;sensor_type;location;lat;lon;timestamp;temperature;humidity
19192;DHT22;9728;48.194;16.346;2022-09-23T00:00:59;18.00;43.90
19192;DHT22;9728;48.194;16.346;2022-09-23T00:06:05;18.00;44.40
19192;DHT22;9728;48.194;16.346;2022-09-23T00:11:11;18.00;44.20
19192;DHT22;9728;48.194;16.346;2022-09-23T00:16:21;17.90;44.20
19192;DHT22;9728;48.194;16.346;2022-09-23T00:21:25;17.90;44.40
19192;DHT22;9728;48.194;16.346;2022-09-23T00:26:28;17.80;44.10
19192;DHT22;9728;48.194;16.346;2022-09-23T00:31:33;17.80;44.20
19192;DHT22;9728;48.194;16.346;2022-09-23T00:36:36;17.80;44.40
19192;DHT22;9728;48.194;16.346;2022-09-23T00:41:39;17.70;44.30
19192;DHT22;9728;48.194;16.346;2022-09-23T00:46:44;17.70;44.40
19192;DHT22;9728;48.194;16.346;2022-09-23T00:51:52;17.60;44.60
19192;DHT22;9728;48.194;16.346;2022-09-23T00:56:57;17.50;44.80
19192;DHT22;9728;48.194;16.346;2022-09-23T01:02:03;17.60;45.30
19192;DHT22;9728;48.194;16.346;2022-09-23T01:07:07;17.50;44.80
19192;DHT22;9728;48.194;16.346;2022-09-23T01:12:23;17.50;44.70
19192;DHT22;9728;48.194;16.346;2022-09-23T01:17:35;17.40;45.00
19192;DHT22;9728;48.194;16.346;2022-09-23T01:22:45;17.40;45.10
19192;DHT22;9728;48.194;16.346;2022-09-23T01:28:00;17.40;44.90
19192;DHT22;9728;48.194;16.346;2022-09-23T01:33:15;17.40;45.30
19192;DHT22;9728;48.194;16.346;2022-09-23T01:38:28;17.30;45.20
19192;DHT22;9728;48.194;16.346;2022-09-23T01:43:38;17.30;45.20
19192;DHT22;9728;48.194;16.346;2022-09-23T01:48:50;17.30;45.20
19192;DHT22;9728;48.194;16.346;2022-09-23T01:53:58;17.20;45.40
19192;DHT22;9728;48.194;16.346;2022-09-23T01:59:09;17.20;45.30
19192;DHT22;9728;48.194;16.346;2022-09-23T02:04:18;17.20;45.40
19192;DHT22;9728;48.194;16.346;2022-09-23T02:09:27;17.20;45.50
19192;DHT22;9728;48.194;16.346;2022-09-23T02:14:35;17.20;45.40
19192;DHT22;9728;48.194;16.346;2022-09-23T02:19:44;17.10;45.40
19192;DHT22;9728;48.194;16.346;2022-09-23T02:24:48;17.10;45.60
19192;DHT22;9728;48.194;16.346;2022-09-23T02:29:56;17.10;45.40
19192;DHT22;9728;48.194;16.346;2022-09-23T02:35:09;17.10;45.60
19192;DHT22;9728;48.194;16.346;2022-09-23T02:40:19;17.10;45.80
19192;DHT22;9728;48.194;16.346;2022-09-23T02:45:24;17.00;45.70
19192;DHT22;9728;48.194;16.346;2022-09-23T02:50:30;17.00;45.40
19192;DHT22;9728;48.194;16.346;2022-09-23T02:55:34;17.00;45.60
19192;DHT22;9728;48.194;16.346;2022-09-23T03:00:44;17.00;45.40
19192;DHT22;9728;48.194;16.346;2022-09-23T03:05:55;17.00;45.70
19192;DHT22;9728;48.194;16.346;2022-09-23T03:11:04;17.00;45.70
19192;DHT22;9728;48.194;16.346;2022-09-23T03:16:14;16.90;45.70
19192;DHT22;9728;48.194;16.346;2022-09-23T03:21:24;16.90;45.70
19192;DHT22;9728;48.194;16.346;2022-09-23T03:26:33;16.90;45.80
19192;DHT22;9728;48.194;16.346;2022-09-23T03:31:39;16.80;45.70
19192;DHT22;9728;48.194;16.346;2022-09-23T03:36:49;16.80;45.80
19192;DHT22;9728;48.194;16.346;2022-09-23T03:41:57;16.80;45.90
19192;DHT22;9728;48.194;16.346;2022-09-23T03:47:00;16.70;45.70
19192;DHT22;9728;48.194;16.346;2022-09-23T03:52:06;16.70;45.60
19192;DHT22;9728;48.194;16.346;2022-09-23T03:57:09;16.70;45.80
19192;DHT22;9728;48.194;16.346;2022-09-23T04:02:13;16.60;45.70
19192;DHT22;9728;48.194;16.346;2022-09-23T04:07:18;16.60;45.70
19192;DHT22;9728;48.194;16.346;2022-09-23T04:12:22;16.60;45.80
19192;DHT22;9728;48.194;16.346;2022-09-23T04:17:25;16.60;45.80
19192;DHT22;9728;48.194;16.346;2022-09-23T04:22:31;16.50;45.80
19192;DHT22;9728;48.194;16.346;2022-09-23T04:27:34;16.60;45.90
19192;DHT22;9728;48.194;16.346;2022-09-23T04:32:39;16.50;45.80
19192;DHT22;9728;48.194;16.346;2022-09-23T04:37:46;16.50;45.70
19192;DHT22;9728;48.194;16.346;2022-09-23T04:42:49;16.40;45.90
19192;DHT22;9728;48.194;16.346;2022-09-23T04:47:53;16.40;45.80
19192;DHT22;9728;48.194;16.346;2022-09-23T04:53:00;16.30;45.80
19192;DHT22;9728;48.194;16.346;2022-09-23T04:58:03;16.30;45.80
19192;DHT22;9728;48.194;16.346;2022-09-23T05:03:07;16.30;45.80
19192;DHT22;9728;48.194;16.346;2022-09-23T05:08:11;16.30;45.80
19192;DHT22;9728;48.194;16.346;2022-09-23T05:13:15;16.20;46.00
19192;DHT22;9728;48.194;16.346;2022-09-23T05:18:18;16.20;45.90
19192;DHT22;9728;48.194;16.346;2022-09-23T05:23:23;16.20;46.00
19192;DHT22;9728;48.194;16.346;2022-09-23T05:28:27;16.20;46.10
19192;DHT22;9728;48.194;16.346;2022-09-23T05:33:31;16.10;46.10
19192;DHT22;9728;48.194;16.346;2022-09-23T05:38:35;16.10;46.10
19192;DHT22;9728;48.194;16.346;2022-09-23T05:43:39;16.10;46.20
19192;DHT22;9728;48.194;16.346;2022-09-23T05:48:43;16.10;46.30
19192;DHT22;9728;48.194;16.346;2022-09-23T05:53:50;16.10;46.40
19192;DHT22;9728;48.194;16.346;2022-09-23T05:58:55;16.10;46.60
19192;DHT22;9728;48.194;16.346;2022-09-23T06:03:59;16.10;46.60
19192;DHT22;9728;48.194;16.346;2022-09-23T06:09:06;16.10;46.70
19192;DHT22;9728;48.194;16.346;2022-09-23T06:14:12;16.20;47.00
19192;DHT22;9728;48.194;16.346;2022-09-23T06:19:15;16.20;46.90
19192;DHT22;9728;48.194;16.346;2022-09-23T06:24:21;16.20;46.90
19192;DHT22;9728;48.194;16.346;2022-09-23T06:29:31;16.30;47.10
19192;DHT22;9728;48.194;16.346;2022-09-23T06:34:34;16.30;47.00
19192;DHT22;9728;48.194;16.346;2022-09-23T06:39:52;16.40;47.10
19192;DHT22;9728;48.194;16.346;2022-09-23T06:44:56;16.40;47.20
19192;DHT22;9728;48.194;16.346;2022-09-23T06:50:01;16.50;47.10
19192;DHT22;9728;48.194;16.346;2022-09-23T06:55:06;16.60;47.10
19192;DHT22;9728;48.194;16.346;2022-09-23T07:00:12;16.60;47.30
19192;DHT22;9728;48.194;16.346;2022-09-23T07:05:16;16.70;47.30
19192;DHT22;9728;48.194;16.346;2022-09-23T07:10:21;16.80;47.30
19192;DHT22;9728;48.194;16.346;2022-09-23T07:15:24;16.90;47.60
19192;DHT22;9728;48.194;16.346;2022-09-23T07:20:27;16.90;47.60
19192;DHT22;9728;48.194;16.346;2022-09-23T07:25:32;17.00;47.60
19192;DHT22;9728;48.194;16.346;2022-09-23T07:30:36;17.20;47.80
19192;DHT22;9728;48.194;16.346;2022-09-23T07:35:42;17.30;47.80
19192;DHT22;9728;48.194;16.346;2022-09-23T07:40:47;17.30;47.70
19192;DHT22;9728;48.194;16.346;2022-09-23T07:45:51;17.50;47.80
19192;DHT22;9728;48.194;16.346;2022-09-23T07:50:56;17.60;47.80
19192;DHT22;9728;48.194;16.346;2022-09-23T07:56:03;17.80;47.70
19192;DHT22;9728;48.194;16.346;2022-09-23T08:01:09;17.90;47.70
19192;DHT22;9728;48.194;16.346;2022-09-23T08:06:13;18.00;47.50
19192;DHT22;9728;48.194;16.346;2022-09-23T08:11:18;18.20;47.50
19192;DHT22;9728;48.194;16.346;2022-09-23T08:16:21;18.40;47.20
19192;DHT22;9728;48.194;16.346;2022-09-23T08:21:25;18.50;47.10
19192;DHT22;9728;48.194;16.346;2022-09-23T08:26:30;18.60;47.00
19192;DHT22;9728;48.194;16.346;2022-09-23T08:31:35;18.80;47.00
19192;DHT22;9728;48.194;16.346;2022-09-23T08:36:38;19.00;46.80
19192;DHT22;9728;48.194;16.346;2022-09-23T08:41:48;19.20;47.30
19192;DHT22;9728;48.194;16.346;2022-09-23T08:47:07;19.40;46.30
19192;DHT22;9728;48.194;16.346;2022-09-23T08:52:18;19.60;46.00
19192;DHT22;9728;48.194;16.346;2022-09-23T08:57:32;19.80;46.00
19192;DHT22;9728;48.194;16.346;2022-09-23T09:02:36;20.00;46.20
19192;DHT22;9728;48.194;16.346;2022-09-23T09:07:40;20.20;46.00
19192;DHT22;9728;48.194;16.346;2022-09-23T09:12:46;20.50;45.70
19192;DHT22;9728;48.194;16.346;2022-09-23T09:17:58;20.80;45.40
19192;DHT22;9728;48.194;16.346;2022-09-23T09:23:07;21.00;44.80
19192;DHT22;9728;48.194;16.346;2022-09-23T09:28:20;21.30;44.80
19192;DHT22;9728;48.194;16.346;2022-09-23T09:33:28;21.50;44.60
19192;DHT22;9728;48.194;16.346;2022-09-23T09:38:33;21.80;44.60
19192;DHT22;9728;48.194;16.346;2022-09-23T09:43:39;22.10;44.60
19192;DHT22;9728;48.194;16.346;2022-09-23T09:48:48;22.40;45.80
19192;DHT22;9728;48.194;16.346;2022-09-23T09:53:54;22.70;44.30
19192;DHT22;9728;48.194;16.346;2022-09-23T09:59:23;23.10;44.30
19192;DHT22;9728;48.194;16.346;2022-09-23T10:04:32;23.40;43.20
19192;DHT22;9728;48.194;16.346;2022-09-23T10:09:38;23.80;42.70
19192;DHT22;9728;48.194;16.346;2022-09-23T10:14:44;24.20;42.80
19192;DHT22;9728;48.194;16.346;2022-09-23T10:19:49;24.50;42.30
19192;DHT22;9728;48.194;16.346;2022-09-23T10:25:05;24.90;41.70
19192;DHT22;9728;48.194;16.346;2022-09-23T10:30:20;25.20;40.90
19192;DHT22;9728;48.194;16.346;2022-09-23T10:35:24;25.60;39.30
19192;DHT22;9728;48.194;16.346;2022-09-23T10:40:29;25.90;40.60
19192;DHT22;9728;48.194;16.346;2022-09-23T10:45:57;26.30;40.20
19192;DHT22;9728;48.194;16.346;2022-09-23T10:51:26;26.60;38.60
19192;DHT22;9728;48.194;16.346;2022-09-23T10:56:36;26.90;38.10
19192;DHT22;9728;48.194;16.346;2022-09-23T11:01:49;27.20;38.40
19192;DHT22;9728;48.194;16.346;2022-09-23T11:07:10;27.40;36.20
19192;DHT22;9728;48.194;16.346;2022-09-23T11:12:23;27.60;35.80
19192;DHT22;9728;48.194;16.346;2022-09-23T11:18:00;27.80;36.10
19192;DHT22;9728;48.194;16.346;2022-09-23T11:23:27;28.00;35.00
19192;DHT22;9728;48.194;16.346;2022-09-23T11:34:24;28.40;34.40
19192;DHT22;9728;48.194;16.346;2022-09-23T11:39:35;28.50;33.60
19192;DHT22;9728;48.194;16.346;2022-09-23T11:44:42;28.60;34.00
19192;DHT22;9728;48.194;16.346;2022-09-23T11:49:54;28.70;34.10
19192;DHT22;9728;48.194;16.346;2022-09-23T11:55:02;28.80;33.20
19192;DHT22;9728;48.194;16.346;2022-09-23T12:00:23;28.90;33.30
19192;DHT22;9728;48.194;16.346;2022-09-23T12:05:32;29.00;33.60
19192;DHT22;9728;48.194;16.346;2022-09-23T12:10:52;29.00;32.50
19192;DHT22;9728;48.194;16.346;2022-09-23T12:16:17;28.90;32.50
19192;DHT22;9728;48.194;16.346;2022-09-23T12:21:39;29.00;31.70
19192;DHT22;9728;48.194;16.346;2022-09-23T12:26:55;29.10;31.70
19192;DHT22;9728;48.194;16.346;2022-09-23T12:32:00;29.10;32.20
19192;DHT22;9728;48.194;16.346;2022-09-23T12:37:12;29.20;32.30
19192;DHT22;9728;48.194;16.346;2022-09-23T12:42:18;29.20;31.70
19192;DHT22;9728;48.194;16.346;2022-09-23T12:47:38;29.20;31.40
19192;DHT22;9728;48.194;16.346;2022-09-23T12:52:43;29.20;30.00
19192;DHT22;9728;48.194;16.346;2022-09-23T12:57:46;29.20;31.10
19192;DHT22;9728;48.194;16.346;2022-09-23T13:02:55;29.20;31.10
19192;DHT22;9728;48.194;16.346;2022-09-23T13:08:21;29.20;29.60
19192;DHT22;9728;48.194;16.346;2022-09-23T13:13:27;29.20;30.00
19192;DHT22;9728;48.194;16.346;2022-09-23T13:18:56;29.10;30.20
19192;DHT22;9728;48.194;16.346;2022-09-23T13:24:18;28.90;29.20
19192;DHT22;9728;48.194;16.346;2022-09-23T13:29:25;28.80;29.10
19192;DHT22;9728;48.194;16.346;2022-09-23T13:34:31;28.60;29.40
19192;DHT22;9728;48.194;16.346;2022-09-23T13:39:37;28.40;29.40
19192;DHT22;9728;48.194;16.346;2022-09-23T13:44:40;28.10;29.30
19192;DHT22;9728;48.194;16.346;2022-09-23T13:49:43;27.80;29.50
19192;DHT22;9728;48.194;16.346;2022-09-23T13:54:50;27.60;29.50
19192;DHT22;9728;48.194;16.346;2022-09-23T13:59:59;27.40;29.40
19192;DHT22;9728;48.194;16.346;2022-09-23T14:05:09;27.20;29.10
19192;DHT22;9728;48.194;16.346;2022-09-23T14:10:17;26.90;29.10
19192;DHT22;9728;48.194;16.346;2022-09-23T14:15:22;26.70;29.30
19192;DHT22;9728;48.194;16.346;2022-09-23T14:20:25;26.50;29.70
19192;DHT22;9728;48.194;16.346;2022-09-23T14:25:30;26.30;29.80
19192;DHT22;9728;48.194;16.346;2022-09-23T14:30:33;26.10;29.80
19192;DHT22;9728;48.194;16.346;2022-09-23T14:35:41;25.90;30.00
19192;DHT22;9728;48.194;16.346;2022-09-23T14:40:52;25.70;30.00
19192;DHT22;9728;48.194;16.346;2022-09-23T14:46:18;25.50;29.70
19192;DHT22;9728;48.194;16.346;2022-09-23T14:51:32;25.40;30.10
19192;DHT22;9728;48.194;16.346;2022-09-23T14:56:41;25.30;30.00
19192;DHT22;9728;48.194;16.346;2022-09-23T15:01:45;25.10;30.00
19192;DHT22;9728;48.194;16.346;2022-09-23T15:06:50;25.00;30.50
19192;DHT22;9728;48.194;16.346;2022-09-23T15:12:03;25.00;31.20
19192;DHT22;9728;48.194;16.346;2022-09-23T15:17:15;24.90;30.10
19192;DHT22;9728;48.194;16.346;2022-09-23T15:22:20;24.70;30.20
19192;DHT22;9728;48.194;16.346;2022-09-23T15:27:29;24.70;30.80
19192;DHT22;9728;48.194;16.346;2022-09-23T15:32:33;24.60;30.40
19192;DHT22;9728;48.194;16.346;2022-09-23T15:37:36;24.50;31.00
19192;DHT22;9728;48.194;16.346;2022-09-23T15:42:44;24.40;30.90
19192;DHT22;9728;48.194;16.346;2022-09-23T15:47:52;24.30;30.70
19192;DHT22;9728;48.194;16.346;2022-09-23T15:52:56;24.20;31.00
19192;DHT22;9728;48.194;16.346;2022-09-23T15:58:02;24.20;31.00
19192;DHT22;9728;48.194;16.346;2022-09-23T16:03:05;24.10;31.00
19192;DHT22;9728;48.194;16.346;2022-09-23T16:08:09;24.00;31.20
19192;DHT22;9728;48.194;16.346;2022-09-23T16:13:14;23.90;31.30
19192;DHT22;9728;48.194;16.346;2022-09-23T16:18:17;23.90;31.20
19192;DHT22;9728;48.194;16.346;2022-09-23T16:23:22;23.80;31.40
19192;DHT22;9728;48.194;16.346;2022-09-23T16:28:36;23.70;31.40
19192;DHT22;9728;48.194;16.346;2022-09-23T16:33:40;23.70;31.50
19192;DHT22;9728;48.194;16.346;2022-09-23T16:38:43;23.60;31.70
19192;DHT22;9728;48.194;16.346;2022-09-23T16:43:49;23.50;31.80
19192;DHT22;9728;48.194;16.346;2022-09-23T16:48:53;23.40;31.80
19192;DHT22;9728;48.194;16.346;2022-09-23T16:53:57;23.30;32.00
19192;DHT22;9728;48.194;16.346;2022-09-23T16:59:03;23.30;32.10
19192;DHT22;9728;48.194;16.346;2022-09-23T17:04:07;23.30;32.10
19192;DHT22;9728;48.194;16.346;2022-09-23T17:09:11;23.20;32.20
19192;DHT22;9728;48.194;16.346;2022-09-23T17:14:16;23.10;33.00
19192;DHT22;9728;48.194;16.346;2022-09-23T17:19:19;23.10;32.30
19192;DHT22;9728;48.194;16.346;2022-09-23T17:24:23;23.00;32.40
19192;DHT22;9728;48.194;16.346;2022-09-23T17:29:28;23.00;32.40
19192;DHT22;9728;48.194;16.346;2022-09-23T17:34:31;22.90;32.40
19192;DHT22;9728;48.194;16.346;2022-09-23T17:39:35;22.80;32.50
19192;DHT22;9728;48.194;16.346;2022-09-23T17:44:40;22.80;32.50
19192;DHT22;9728;48.194;16.346;2022-09-23T17:49:43;22.80;32.50
19192;DHT22;9728;48.194;16.346;2022-09-23T17:54:48;22.70;32.70
19192;DHT22;9728;48.194;16.346;2022-09-23T17:59:53;22.60;32.70
19192;DHT22;9728;48.194;16.346;2022-09-23T18:04:56;22.60;32.80
19192;DHT22;9728;48.194;16.346;2022-09-23T18:10:00;22.60;32.90
19192;DHT22;9728;48.194;16.346;2022-09-23T18:15:05;22.50;32.90
19192;DHT22;9728;48.194;16.346;2022-09-23T18:20:09;22.50;33.00
19192;DHT22;9728;48.194;16.346;2022-09-23T18:25:13;22.40;33.10
19192;DHT22;9728;48.194;16.346;2022-09-23T18:30:37;22.30;33.10
19192;DHT22;9728;48.194;16.346;2022-09-23T18:35:41;22.30;33.10
19192;DHT22;9728;48.194;16.346;2022-09-23T18:40:51;22.20;33.20
19192;DHT22;9728;48.194;16.346;2022-09-23T18:46:00;22.20;33.30
19192;DHT22;9728;48.194;16.346;2022-09-23T18:51:06;22.10;33.50
19192;DHT22;9728;48.194;16.346;2022-09-23T18:56:11;22.00;34.20
19192;DHT22;9728;48.194;16.346;2022-09-23T19:01:17;22.00;33.60
19192;DHT22;9728;48.194;16.346;2022-09-23T19:06:21;21.90;33.60
19192;DHT22;9728;48.194;16.346;2022-09-23T19:11:25;21.90;33.70
19192;DHT22;9728;48.194;16.346;2022-09-23T19:16:30;21.80;33.80
19192;DHT22;9728;48.194;16.346;2022-09-23T19:21:34;21.70;33.80
19192;DHT22;9728;48.194;16.346;2022-09-23T19:26:39;21.70;34.10
19192;DHT22;9728;48.194;16.346;2022-09-23T19:31:44;21.70;34.10
19192;DHT22;9728;48.194;16.346;2022-09-23T19:36:47;21.60;34.10
19192;DHT22;9728;48.194;16.346;2022-09-23T19:41:51;21.60;34.10
19192;DHT22;9728;48.194;16.346;2022-09-23T19:46:57;21.50;34.10
19192;DHT22;9728;48.194;16.346;2022-09-23T19:52:01;21.50;34.20
19192;DHT22;9728;48.194;16.346;2022-09-23T19:57:04;21.40;34.10
19192;DHT22;9728;48.194;16.346;2022-09-23T20:02:09;21.30;34.20
19192;DHT22;9728;48.194;16.346;2022-09-23T20:07:13;21.30;34.30
19192;DHT22;9728;48.194;16.346;2022-09-23T20:12:17;21.20;34.30
19192;DHT22;9728;48.194;16.346;2022-09-23T20:17:21;21.20;34.40
19192;DHT22;9728;48.194;16.346;2022-09-23T20:22:25;21.20;34.50
19192;DHT22;9728;48.194;16.346;2022-09-23T20:27:34;21.10;34.60
19192;DHT22;9728;48.194;16.346;2022-09-23T20:32:39;21.10;34.60
19192;DHT22;9728;48.194;16.346;2022-09-23T20:37:45;21.00;34.70
19192;DHT22;9728;48.194;16.346;2022-09-23T20:42:49;21.00;34.70
19192;DHT22;9728;48.194;16.346;2022-09-23T20:47:53;21.00;34.90
19192;DHT22;9728;48.194;16.346;2022-09-23T20:53:00;20.90;35.00
19192;DHT22;9728;48.194;16.346;2022-09-23T20:58:03;20.90;35.30
19192;DHT22;9728;48.194;16.346;2022-09-23T21:03:08;20.80;35.40
19192;DHT22;9728;48.194;16.346;2022-09-23T21:08:11;20.80;35.80
19192;DHT22;9728;48.194;16.346;2022-09-23T21:13:15;20.70;35.90
19192;DHT22;9728;48.194;16.346;2022-09-23T21:18:20;20.60;36.10
19192;DHT22;9728;48.194;16.346;2022-09-23T21:23:26;20.60;36.40
19192;DHT22;9728;48.194;16.346;2022-09-23T21:28:29;20.50;36.40
19192;DHT22;9728;48.194;16.346;2022-09-23T21:33:35;20.50;36.60
19192;DHT22;9728;48.194;16.346;2022-09-23T21:38:38;20.50;36.90
19192;DHT22;9728;48.194;16.346;2022-09-23T21:43:42;20.40;36.80
19192;DHT22;9728;48.194;16.346;2022-09-23T21:48:49;20.40;37.00
19192;DHT22;9728;48.194;16.346;2022-09-23T21:53:56;20.30;37.30
19192;DHT22;9728;48.194;16.346;2022-09-23T21:58:59;20.30;37.30
19192;DHT22;9728;48.194;16.346;2022-09-23T22:04:06;20.20;37.20
19192;DHT22;9728;48.194;16.346;2022-09-23T22:09:13;20.20;37.40
19192;DHT22;9728;48.194;16.346;2022-09-23T22:14:17;20.20;37.30
19192;DHT22;9728;48.194;16.346;2022-09-23T22:19:23;20.10;37.40
19192;DHT22;9728;48.194;16.346;2022-09-23T22:24:27;20.00;37.50
19192;DHT22;9728;48.194;16.346;2022-09-23T22:29:30;20.00;37.50
19192;DHT22;9728;48.194;16.346;2022-09-23T22:34:52;20.00;37.50
19192;DHT22;9728;48.194;16.346;2022-09-23T22:39:56;19.90;37.60
19192;DHT22;9728;48.194;16.346;2022-09-23T22:44:59;19.80;37.60
19192;DHT22;9728;48.194;16.346;2022-09-23T22:50:07;19.80;37.70
19192;DHT22;9728;48.194;16.346;2022-09-23T22:55:11;19.80;38.00
19192;DHT22;9728;48.194;16.346;2022-09-23T23:00:14;19.70;37.90
19192;DHT22;9728;48.194;16.346;2022-09-23T23:05:19;19.70;37.90
19192;DHT22;9728;48.194;16.346;2022-09-23T23:10:22;19.70;38.10
19192;DHT22;9728;48.194;16.346;2022-09-23T23:15:28;19.70;38.10
19192;DHT22;9728;48.194;16.346;2022-09-23T23:20:32;19.60;38.20
19192;DHT22;9728;48.194;16.346;2022-09-23T23:25:36;19.50;38.30
19192;DHT22;9728;48.194;16.346;2022-09-23T23:30:39;19.50;38.30
19192;DHT22;9728;48.194;16.346;2022-09-23T23:35:50;19.50;39.10
19192;DHT22;9728;48.194;16.346;2022-09-23T23:40:53;19.40;39.00
19192;DHT22;9728;48.194;16.346;2022-09-23T23:45:57;19.40;38.70
19192;DHT22;9728;48.194;16.346;2022-09-23T23:51:04;19.30;38.70
19192;DHT22;9728;48.194;16.346;2022-09-23T23:56:11;19.30;39.00
